createdAt,value
2023-04-07T00:01:28.876Z,92014.94
2023-04-07T00:04:14.816Z,92017.09
2023-04-07T00:07:00.883Z,92008.16
2023-04-07T00:09:46.828Z,92005.59
2023-04-07T00:12:32.659Z,92001.50
2023-04-07T00:15:18.499Z,91994.78
2023-04-07T00:18:04.355Z,91999.53
2023-04-07T00:20:50.270Z,91985.53
2023-04-07T00:23:36.151Z,91988.44
2023-04-07T00:26:22.108Z,91981.78
2023-04-07T00:29:07.989Z,91986.34
2023-04-07T00:31:53.929Z,91982.97
2023-04-07T00:34:39.735Z,91983.81
2023-04-07T00:37:25.632Z,91984.47
2023-04-07T00:40:11.494Z,91974.47
2023-04-07T00:42:57.421Z,91963.16
2023-04-07T00:45:43.317Z,91958.00
2023-04-07T00:48:29.332Z,91953.06
2023-04-07T00:51:15.161Z,91944.38
2023-04-07T00:54:01.567Z,91938.78
2023-04-07T00:56:47.463Z,91933.13
2023-04-07T00:59:35.384Z,91933.22
2023-04-07T01:02:21.213Z,91923.66
2023-04-07T01:05:07.329Z,91916.31
2023-04-07T01:07:53.525Z,91917.47
2023-04-07T01:10:39.380Z,91908.50
2023-04-07T01:13:25.215Z,91900.06
2023-04-07T01:16:11.129Z,91902.78
2023-04-07T01:18:56.996Z,91902.44
2023-04-07T01:21:42.793Z,91894.59
2023-04-07T01:24:28.780Z,91893.50
2023-04-07T01:27:14.555Z,91885.25
2023-04-07T01:30:00.453Z,91894.56
2023-04-07T01:32:46.347Z,91889.31
2023-04-07T01:35:32.261Z,91886.28
2023-04-07T01:38:18.049Z,91892.16
2023-04-07T01:41:04.015Z,91889.84
2023-04-07T01:43:49.920Z,91879.47
2023-04-07T01:46:35.845Z,91872.38
2023-04-07T01:49:21.584Z,91874.97
2023-04-07T01:52:07.578Z,91873.53
2023-04-07T01:54:53.501Z,91863.53
2023-04-07T01:57:39.309Z,91868.94
2023-04-07T02:00:25.319Z,91868.09
2023-04-07T02:03:11.323Z,91862.06
2023-04-07T02:05:57.684Z,91860.63
2023-04-07T02:08:43.750Z,91849.50
2023-04-07T02:11:29.567Z,91841.69
2023-04-07T02:14:15.449Z,91845.88
2023-04-07T02:17:01.296Z,91843.59
2023-04-07T02:19:47.129Z,91834.72
2023-04-07T02:22:33.034Z,91839.25
2023-04-07T02:25:18.831Z,91823.53
2023-04-07T02:28:04.639Z,91818.66
2023-04-07T02:30:50.469Z,91819.88
2023-04-07T02:33:36.266Z,91819.13
2023-04-07T02:36:22.205Z,91816.25
2023-04-07T02:39:08.228Z,91798.84
2023-04-07T02:41:54.123Z,91780.50
2023-04-07T02:44:40.013Z,91784.31
2023-04-07T02:47:25.862Z,91780.03
2023-04-07T02:50:11.567Z,91784.44
2023-04-07T02:52:57.462Z,91784.91
2023-04-07T02:55:43.277Z,91784.09
2023-04-07T02:58:29.173Z,91785.22
2023-04-07T03:01:15.113Z,91787.88
2023-04-07T03:04:01.174Z,91784.22
2023-04-07T03:06:47.411Z,91774.09
2023-04-07T03:09:33.220Z,91772.56
2023-04-07T03:12:19.134Z,91762.44
2023-04-07T03:15:05.063Z,91765.13
2023-04-07T03:17:51.017Z,91754.97
2023-04-07T03:20:37.028Z,91753.41
2023-04-07T03:23:22.885Z,91744.81
2023-04-07T03:26:08.759Z,91743.72
2023-04-07T03:28:54.657Z,91734.63
2023-04-07T03:31:40.623Z,91730.47
2023-04-07T03:34:26.592Z,91726.72
2023-04-07T03:37:12.402Z,91727.84
2023-04-07T03:39:58.399Z,91726.78
2023-04-07T03:42:44.405Z,91730.56
2023-04-07T03:45:30.167Z,91724.13
2023-04-07T03:48:16.192Z,91723.03
2023-04-07T03:51:02.069Z,91719.59
2023-04-07T03:53:47.944Z,91709.44
2023-04-07T03:56:33.818Z,91712.81
2023-04-07T03:59:21.764Z,91709.38
2023-04-07T04:02:07.927Z,91712.22
2023-04-07T04:04:54.170Z,91712.09
2023-04-07T04:07:40.067Z,91710.66
2023-04-07T04:10:25.999Z,91704.34
2023-04-07T04:13:11.962Z,91699.59
2023-04-07T04:15:57.649Z,91695.28
2023-04-07T04:18:43.664Z,91701.91
2023-04-07T04:21:29.474Z,91690.00
2023-04-07T04:24:15.341Z,91703.78
2023-04-07T04:27:01.215Z,91710.53
2023-04-07T04:29:46.883Z,91703.38
2023-04-07T04:32:32.854Z,91701.50
2023-04-07T04:35:18.830Z,91718.44
2023-04-07T04:38:04.765Z,91721.00
2023-04-07T04:40:50.581Z,91738.31
2023-04-07T04:43:36.524Z,91744.97
2023-04-07T04:46:22.522Z,91758.75
2023-04-07T04:49:08.528Z,91765.47
2023-04-07T04:51:54.233Z,91768.63
2023-04-07T04:54:40.181Z,91770.16
2023-04-07T04:57:25.850Z,91770.25
2023-04-07T05:00:11.563Z,91783.72
2023-04-07T05:02:57.698Z,91786.00
2023-04-07T05:05:43.817Z,91786.06
2023-04-07T05:08:29.654Z,91790.53
2023-04-07T05:11:15.534Z,91793.03
2023-04-07T05:14:01.212Z,91780.53
2023-04-07T05:16:47.101Z,91769.06
2023-04-07T05:19:34.992Z,91774.63
2023-04-07T05:22:20.797Z,91768.16
2023-04-07T05:25:06.605Z,91760.88
2023-04-07T05:27:52.361Z,91762.16
2023-04-07T05:30:38.193Z,91765.94
2023-04-07T05:33:24.081Z,91769.22
2023-04-07T05:36:09.918Z,91766.34
2023-04-07T05:38:55.689Z,91761.06
2023-04-07T05:41:41.502Z,91767.44
2023-04-07T05:44:27.309Z,91779.16
2023-04-07T05:47:13.195Z,91783.19
2023-04-07T05:49:59.019Z,91780.22
2023-04-07T05:52:44.829Z,91777.44
2023-04-07T05:55:30.744Z,91772.34
2023-04-07T05:58:16.424Z,91760.97
2023-04-07T06:01:02.433Z,91756.22
2023-04-07T06:03:48.464Z,91758.50
2023-04-07T06:06:34.657Z,91730.88
2023-04-07T06:09:20.607Z,91741.09
2023-04-07T06:12:06.518Z,91733.94
2023-04-07T06:14:52.503Z,91730.06
2023-04-07T06:17:38.467Z,91739.91
2023-04-07T06:20:24.413Z,91738.63
2023-04-07T06:23:10.131Z,91742.97
2023-04-07T06:25:55.900Z,91741.97
2023-04-07T06:28:41.740Z,91749.50
2023-04-07T06:31:27.663Z,91755.78
2023-04-07T06:34:13.547Z,91763.00
2023-04-07T06:36:59.633Z,91783.41
2023-04-07T06:39:45.856Z,91814.59
2023-04-07T06:42:31.818Z,91819.88
2023-04-07T06:45:17.818Z,91828.66
2023-04-07T06:48:03.681Z,91839.38
2023-04-07T06:50:49.591Z,91837.53
2023-04-07T06:53:35.690Z,91838.03
2023-04-07T06:56:21.581Z,91860.56
2023-04-07T06:59:07.438Z,91847.72
2023-04-07T07:01:53.295Z,91849.84
2023-04-07T07:04:39.220Z,91846.34
2023-04-07T07:07:25.139Z,91832.31
2023-04-07T07:10:10.962Z,91820.38
2023-04-07T07:12:56.787Z,91826.28
2023-04-07T07:15:42.718Z,91827.59
2023-04-07T07:18:31.091Z,91834.81
2023-04-07T07:21:17.738Z,91833.00
2023-04-07T07:24:03.829Z,91836.91
2023-04-07T07:26:49.686Z,91840.81
2023-04-07T07:29:35.681Z,91850.75
2023-04-07T07:32:21.693Z,91855.97
2023-04-07T07:35:07.624Z,91854.78
2023-04-07T07:37:53.819Z,91867.31
2023-04-07T07:40:39.820Z,91855.16
2023-04-07T07:43:25.718Z,91843.84
2023-04-07T07:46:11.687Z,91818.91
2023-04-07T07:48:57.486Z,91805.19
2023-04-07T07:51:43.682Z,91800.50
2023-04-07T07:54:29.765Z,91806.72
2023-04-07T07:57:15.662Z,91808.56
2023-04-07T08:00:01.541Z,91820.41
2023-04-07T08:02:47.403Z,91819.81
2023-04-07T08:05:33.612Z,91826.75
2023-04-07T08:08:19.545Z,91836.03
2023-04-07T08:11:05.411Z,91839.00
2023-04-07T08:13:51.368Z,91840.00
2023-04-07T08:16:37.357Z,91847.22
2023-04-07T08:19:23.640Z,91845.38
2023-04-07T08:22:09.562Z,91850.72
2023-04-07T08:24:55.301Z,91845.19
2023-04-07T08:27:41.234Z,91857.72
2023-04-07T08:30:27.121Z,91857.81
2023-04-07T08:33:12.974Z,91866.84
2023-04-07T08:35:58.979Z,91860.84
2023-04-07T08:38:44.920Z,91860.91
2023-04-07T08:41:30.831Z,91868.16
2023-04-07T08:44:16.817Z,91869.75
2023-04-07T08:47:02.569Z,91870.16
2023-04-07T08:49:48.558Z,91882.22
2023-04-07T08:52:34.529Z,91876.81
2023-04-07T08:55:20.262Z,91879.00
2023-04-07T08:58:06.287Z,91887.50
2023-04-07T09:00:52.149Z,91887.59
2023-04-07T09:03:38.126Z,91895.88
2023-04-07T09:06:24.534Z,91890.03
2023-04-07T09:09:10.431Z,91896.91
2023-04-07T09:11:56.387Z,91899.47
2023-04-07T09:14:42.405Z,91899.56
2023-04-07T09:17:28.217Z,91909.56
2023-04-07T09:20:14.194Z,91903.91
2023-04-07T09:22:59.958Z,91905.44
2023-04-07T09:25:45.934Z,91900.72
2023-04-07T09:28:31.941Z,91906.66
2023-04-07T09:31:17.789Z,91909.50
2023-04-07T09:34:03.667Z,91921.00
2023-04-07T09:36:49.563Z,91915.31
2023-04-07T09:39:35.452Z,91912.28
2023-04-07T09:42:21.368Z,91914.16
2023-04-07T09:45:07.178Z,91912.84
2023-04-07T09:47:53.157Z,91916.19
2023-04-07T09:50:39.125Z,91908.03
2023-04-07T09:53:24.904Z,91913.50
2023-04-07T09:56:10.780Z,91911.69
2023-04-07T09:58:56.685Z,91917.00
2023-04-07T10:01:42.746Z,91901.00
2023-04-07T10:04:29.126Z,91904.94
2023-04-07T10:07:14.917Z,91905.50
2023-04-07T10:10:00.905Z,91906.31
2023-04-07T10:12:46.819Z,91901.56
2023-04-07T10:15:32.599Z,91903.47
2023-04-07T10:18:18.581Z,91901.38
2023-04-07T10:21:04.363Z,91901.81
2023-04-07T10:23:50.534Z,91910.53
2023-04-07T10:26:36.837Z,91903.97
2023-04-07T10:29:22.692Z,91904.28
2023-04-07T10:32:08.611Z,91908.91
2023-04-07T10:34:54.426Z,91905.59
2023-04-07T10:37:40.323Z,91911.09
2023-04-07T10:40:26.221Z,91908.09
2023-04-07T10:43:12.198Z,91904.72
2023-04-07T10:45:58.596Z,91908.97
2023-04-07T10:48:44.438Z,91908.25
2023-04-07T10:51:30.255Z,91901.91
2023-04-07T10:54:15.948Z,91900.19
2023-04-07T10:57:02.032Z,91901.38
2023-04-07T10:59:47.896Z,91898.41
2023-04-07T11:02:34.110Z,91901.91
2023-04-07T11:05:20.287Z,91901.34
2023-04-07T11:08:06.112Z,91892.75
2023-04-07T11:10:52.012Z,91899.03
2023-04-07T11:13:37.832Z,91904.13
2023-04-07T11:16:23.907Z,91905.34
2023-04-07T11:19:09.743Z,91904.66
2023-04-07T11:21:55.737Z,91909.75
2023-04-07T11:24:41.764Z,91904.94
2023-04-07T11:27:27.639Z,91904.06
2023-04-07T11:30:13.598Z,91903.44
2023-04-07T11:32:59.739Z,91904.03
2023-04-07T11:35:45.473Z,91910.22
2023-04-07T11:38:31.275Z,91903.47
2023-04-07T11:41:17.156Z,91901.44
2023-04-07T11:44:02.926Z,91903.66
2023-04-07T11:46:49.019Z,91901.34
2023-04-07T11:49:34.799Z,91897.94
2023-04-07T11:52:20.781Z,91896.59
2023-04-07T11:55:06.665Z,91892.66
2023-04-07T11:57:52.726Z,91906.97
2023-04-07T12:00:38.951Z,91899.75
2023-04-07T12:03:25.132Z,91906.41
2023-04-07T12:06:11.454Z,91902.13
2023-04-07T12:08:57.306Z,91908.50
2023-04-07T12:11:43.156Z,91897.53
2023-04-07T12:14:29.092Z,91891.97
2023-04-07T12:17:15.238Z,91896.66
2023-04-07T12:20:01.282Z,91901.69
2023-04-07T12:22:47.174Z,91901.09
2023-04-07T12:25:32.968Z,91903.50
2023-04-07T12:28:18.774Z,91910.38
2023-04-07T12:31:04.612Z,91897.22
2023-04-07T12:33:50.564Z,91901.94
2023-04-07T12:36:36.978Z,91897.44
2023-04-07T12:39:23.082Z,91898.94
2023-04-07T12:42:08.943Z,91899.59
2023-04-07T12:44:54.869Z,91887.63
2023-04-07T12:47:40.790Z,91892.50
2023-04-07T12:50:26.685Z,91898.03
2023-04-07T12:53:12.752Z,91895.53
2023-04-07T12:55:58.598Z,91897.88
2023-04-07T12:58:44.561Z,91889.34
2023-04-07T13:01:30.593Z,91889.84
2023-04-07T13:04:16.854Z,91894.78
2023-04-07T13:07:03.062Z,91886.28
2023-04-07T13:09:48.985Z,91891.06
2023-04-07T13:12:35.012Z,91897.22
2023-04-07T13:15:20.853Z,91886.72
2023-04-07T13:18:06.782Z,91889.19
2023-04-07T13:21:15.732Z,91876.34
2023-04-07T13:23:58.770Z,91873.38
2023-04-07T13:26:44.485Z,91882.13
2023-04-07T13:29:30.274Z,91889.94
2023-04-07T13:32:16.138Z,91880.09
2023-04-07T13:35:01.983Z,91890.09
2023-04-07T13:37:47.761Z,91884.78
2023-04-07T13:40:33.727Z,91892.69
2023-04-07T13:43:19.527Z,91890.38
2023-04-07T13:46:11.745Z,91883.38
2023-04-07T13:49:03.369Z,91885.19
2023-04-07T13:51:49.250Z,91887.56
2023-04-07T13:54:34.989Z,91878.22
2023-04-07T13:57:20.968Z,91876.25
2023-04-07T14:00:06.734Z,91882.00
2023-04-07T14:02:52.720Z,91878.00
2023-04-07T14:05:38.776Z,91875.13
2023-04-07T14:08:24.659Z,91874.66
2023-04-07T14:11:10.537Z,91880.06
2023-04-07T14:13:56.709Z,91879.06
2023-04-07T14:16:42.453Z,91865.78
2023-04-07T14:19:28.347Z,91867.97
2023-04-07T14:22:14.172Z,91865.94
2023-04-07T14:24:59.993Z,91864.31
2023-04-07T14:27:45.853Z,91856.50
2023-04-07T14:30:31.505Z,91854.47
2023-04-07T14:33:17.467Z,91844.41
2023-04-07T14:36:03.423Z,91839.88
2023-04-07T14:38:49.261Z,91839.84
2023-04-07T14:41:35.175Z,91840.19
2023-04-07T14:44:21.063Z,91839.25
2023-04-07T14:47:06.888Z,91859.03
2023-04-07T14:49:53.513Z,91855.72
2023-04-07T14:52:39.663Z,91879.16
2023-04-07T14:55:25.350Z,91880.47
2023-04-07T14:58:11.231Z,91888.38
2023-04-07T15:00:57.170Z,91891.34
2023-04-07T15:03:43.455Z,91893.00
2023-04-07T15:06:29.734Z,91897.28
2023-04-07T15:09:17.664Z,91900.78
2023-04-07T15:12:03.594Z,91903.75
2023-04-07T15:14:49.405Z,91896.19
2023-04-07T15:17:43.836Z,91905.06
2023-04-07T15:20:30.678Z,91899.03
2023-04-07T15:23:16.603Z,91896.47
2023-04-07T15:26:02.501Z,91903.78
2023-04-07T15:28:48.323Z,91905.44
2023-04-07T15:31:34.288Z,91902.63
2023-04-07T15:34:20.177Z,91908.97
2023-04-07T15:37:06.058Z,91893.50
2023-04-07T15:39:51.958Z,91888.69
2023-04-07T15:42:38.554Z,91887.53
2023-04-07T15:45:26.065Z,91886.56
2023-04-07T15:48:11.985Z,91886.31
2023-04-07T15:50:57.786Z,91887.78
2023-04-07T15:53:43.697Z,91889.84
2023-04-07T15:56:29.636Z,91896.53
2023-04-07T15:59:17.544Z,91888.91
2023-04-07T16:02:03.464Z,91906.72
2023-04-07T16:04:49.643Z,91909.56
2023-04-07T16:07:35.618Z,91911.19
2023-04-07T16:10:21.481Z,91919.84
2023-04-07T16:13:07.310Z,91922.44
2023-04-07T16:15:53.273Z,91915.59
2023-04-07T16:18:39.264Z,91915.91
2023-04-07T16:21:25.303Z,91927.00
2023-04-07T16:24:11.229Z,91923.19
2023-04-07T16:26:57.206Z,91918.31
2023-04-07T16:29:43.346Z,91930.94
2023-04-07T16:32:29.283Z,91933.06
2023-04-07T16:35:15.031Z,91941.47
2023-04-07T16:38:01.050Z,91947.69
2023-04-07T16:41:00.715Z,91948.34
2023-04-07T16:43:49.670Z,91941.28
2023-04-07T16:46:35.964Z,91952.56
2023-04-07T16:49:23.964Z,91957.03
2023-04-07T16:52:09.882Z,91959.88
2023-04-07T16:54:55.806Z,91958.69
2023-04-07T16:57:41.680Z,91957.50
2023-04-07T17:00:27.541Z,91962.75
2023-04-07T17:03:13.638Z,91959.34
2023-04-07T17:05:59.892Z,91969.91
2023-04-07T17:08:45.785Z,91971.03
2023-04-07T17:11:31.729Z,91969.34
2023-04-07T17:14:17.557Z,91972.91
2023-04-07T17:17:03.330Z,91972.72
2023-04-07T17:19:49.374Z,91964.72
2023-04-07T17:22:35.195Z,91971.38
2023-04-07T17:25:21.128Z,91969.13
2023-04-07T17:28:07.001Z,91971.03
2023-04-07T17:30:52.934Z,91972.91
2023-04-07T17:33:38.901Z,91971.38
2023-04-07T17:36:24.794Z,91978.75
2023-04-07T17:39:10.689Z,91992.88
2023-04-07T17:41:56.554Z,91989.91
2023-04-07T17:44:42.505Z,91986.13
2023-04-07T17:47:28.546Z,91991.03
2023-04-07T17:50:14.507Z,91993.16
2023-04-07T17:53:00.575Z,91994.69
2023-04-07T17:55:46.593Z,91991.69
2023-04-07T17:58:32.422Z,91997.06
2023-04-07T18:01:20.293Z,92004.63
2023-04-07T18:04:06.832Z,92000.31
2023-04-07T18:06:53.164Z,92000.13
2023-04-07T18:09:39.098Z,91998.31
2023-04-07T18:12:25.134Z,92005.38
2023-04-07T18:15:11.033Z,92014.53
2023-04-07T18:17:56.931Z,92022.88
2023-04-07T18:20:42.797Z,92022.31
2023-04-07T18:23:28.666Z,92018.22
2023-04-07T18:26:14.652Z,92018.81
2023-04-07T18:29:00.459Z,92030.47
2023-04-07T18:31:46.451Z,92040.25
2023-04-07T18:34:32.509Z,92046.53
2023-04-07T18:37:18.417Z,92049.78
2023-04-07T18:40:06.551Z,92047.28
2023-04-07T18:42:52.425Z,92045.31
2023-04-07T18:45:38.148Z,92048.03
2023-04-07T18:48:24.069Z,92052.75
2023-04-07T18:51:09.793Z,92049.16
2023-04-07T18:53:55.677Z,92050.06
2023-04-07T18:56:41.670Z,92053.69
2023-04-07T18:59:27.496Z,92043.28
2023-04-07T19:02:13.448Z,92058.75
2023-04-07T19:04:59.730Z,92059.13
2023-04-07T19:07:45.649Z,92058.38
2023-04-07T19:10:31.640Z,92053.63
2023-04-07T19:13:17.334Z,92073.28
2023-04-07T19:16:03.470Z,92071.66
2023-04-07T19:18:49.446Z,92079.56
2023-04-07T19:21:35.255Z,92070.78
2023-04-07T19:24:21.294Z,92077.88
2023-04-07T19:27:07.134Z,92080.97
2023-04-07T19:29:53.047Z,92085.22
2023-04-07T19:32:38.968Z,92091.59
2023-04-07T19:35:24.870Z,92089.53
2023-04-07T19:38:10.863Z,92085.44
2023-04-07T19:40:56.698Z,92086.34
2023-04-07T19:43:42.610Z,92085.50
2023-04-07T19:46:28.409Z,92078.41
2023-04-07T19:49:14.336Z,92074.16
2023-04-07T19:52:00.218Z,92078.25
2023-04-07T19:54:46.260Z,92081.28
2023-04-07T19:57:32.244Z,92081.53
2023-04-07T20:00:18.060Z,92096.72
2023-04-07T20:03:06.010Z,92098.59
2023-04-07T20:05:52.213Z,92098.81
2023-04-07T20:08:38.118Z,92099.47
2023-04-07T20:11:23.862Z,92106.34
2023-04-07T20:14:09.857Z,92112.09
2023-04-07T20:16:55.727Z,92102.41
2023-04-07T20:19:41.641Z,92107.97
2023-04-07T20:22:27.430Z,92100.00
2023-04-07T20:25:13.345Z,92102.28
2023-04-07T20:27:59.258Z,92113.66
2023-04-07T20:30:45.305Z,92112.75
2023-04-07T20:33:31.097Z,92116.50
2023-04-07T20:36:16.909Z,92116.16
2023-04-07T20:39:02.936Z,92124.50
2023-04-07T20:41:48.826Z,92119.97
2023-04-07T20:44:34.676Z,92126.88
2023-04-07T20:47:20.495Z,92122.41
2023-04-07T20:50:06.425Z,92126.13
2023-04-07T20:52:54.317Z,92127.09
2023-04-07T20:55:40.262Z,92120.53
2023-04-07T20:58:26.296Z,92123.38
2023-04-07T21:01:12.452Z,92118.94
2023-04-07T21:03:58.353Z,92116.16
2023-04-07T21:06:44.262Z,92120.16
2023-04-07T21:09:30.234Z,92120.91
2023-04-07T21:12:16.111Z,92125.06
2023-04-07T21:15:02.053Z,92116.91
2023-04-07T21:17:47.917Z,92117.06
2023-04-07T21:20:33.864Z,92113.69
2023-04-07T21:23:19.772Z,92118.66
2023-04-07T21:26:05.604Z,92118.03
2023-04-07T21:28:51.564Z,92120.19
2023-04-07T21:31:37.432Z,92119.13
2023-04-07T21:34:23.692Z,92111.81
2023-04-07T21:37:09.712Z,92114.69
2023-04-07T21:39:55.476Z,92119.00
2023-04-07T21:42:41.553Z,92116.84
2023-04-07T21:45:27.558Z,92115.13
2023-04-07T21:48:13.362Z,92124.59
2023-04-07T21:50:59.347Z,92124.72
2023-04-07T21:53:45.158Z,92119.16
2023-04-07T21:56:31.029Z,92126.41
2023-04-07T21:59:16.969Z,92124.34
2023-04-07T22:02:02.939Z,92121.00
2023-04-07T22:04:49.484Z,92122.97
2023-04-07T22:07:35.540Z,92122.53
2023-04-07T22:10:21.443Z,92123.28
2023-04-07T22:13:07.294Z,92118.09
2023-04-07T22:15:53.314Z,92120.91
2023-04-07T22:18:39.244Z,92122.78
2023-04-07T22:21:25.121Z,92118.25
2023-04-07T22:24:10.820Z,92118.84
2023-04-07T22:26:56.703Z,92118.69
2023-04-07T22:29:42.640Z,92117.63
2023-04-07T22:32:28.402Z,92121.59
2023-04-07T22:35:17.404Z,92126.22
2023-04-07T22:38:03.361Z,92118.56
2023-04-07T22:40:49.343Z,92121.66
2023-04-07T22:43:35.522Z,92125.47
2023-04-07T22:46:21.443Z,92128.66
2023-04-07T22:49:07.300Z,92122.53
2023-04-07T22:51:53.379Z,92120.22
2023-04-07T22:54:39.173Z,92121.13
2023-04-07T22:57:25.083Z,92120.69
2023-04-07T23:00:11.007Z,92126.22
2023-04-07T23:02:57.059Z,92122.88
2023-04-07T23:05:43.278Z,92121.03
2023-04-07T23:08:29.106Z,92117.69
2023-04-07T23:11:14.977Z,92114.13
2023-04-07T23:14:00.984Z,92116.44
2023-04-07T23:16:46.707Z,92114.00
2023-04-07T23:19:32.712Z,92117.47
2023-04-07T23:22:18.862Z,92108.72
2023-04-07T23:25:04.823Z,92109.41
2023-04-07T23:27:50.786Z,92112.38
2023-04-07T23:30:38.614Z,92110.66
2023-04-07T23:33:24.428Z,92109.53
2023-04-07T23:36:10.389Z,92116.72
2023-04-07T23:38:56.121Z,92119.03
2023-04-07T23:41:42.132Z,92119.19
2023-04-07T23:44:28.125Z,92121.50
2023-04-07T23:47:15.934Z,92121.50
2023-04-07T23:50:01.727Z,92117.16
2023-04-07T23:52:47.570Z,92118.28
2023-04-07T23:55:33.385Z,92116.91
2023-04-07T23:58:19.240Z,92113.22
